East Deerfield, Massachusetts
Current Conditions -  °F | °C
As of 3:52 PM on Sunday 23 Nov 2014 (Local Time) from KORE Reporting Station
Broken Clouds Broken Clouds  
Wind Chill: 50°   Ceiling: 12000
Heat Index: 50°   Visibility: 10mi
Dew Point: 33°   Wind: 6mph
Humidity: 52%   Direction: 180°S
Pressure: 30.09"   Gusts: NA
Location:  42.5381°N, 72.6067°W
Report Text: KORE 232052Z AUTO 18005KT 10SM BKN120 10/01 A3009 RMK AO2 SLP194 T01000006 55002
Loading
Personal Weather Stations






























Interactive Weather Map New forecast layout! Learn more

10-Day Weather Forecast

Advertisements
Track Severe Weather on mobile